Terminal Aerodrome Forecast
Issued by NWS

Home | Current Version | Previous Version | Text Only | Print | Product List | Glossary On
Versions: 1 2 3 4 5 6 7 8 9 10 11 12 13 14 15 16 17 18 19 20 21 22 23 24 25 26 27 28
000
FTUS42 KGSP 302336
TAFHKY
TAF
KHKY 302336Z 0100/0124 17007KT P6SM VCSH SCT060 BKN090
     FM010600 17010KT P6SM BKN015
     FM010900 17011KT P6SM OVC008 PROB30 0109/0114 4SM -SHRA OVC003
     FM011400 19013KT 5SM -SHRA BR OVC015 PROB30 0115/0118 3SM -TSRA
      BR OVC007CB
     FM011800 19016G25KT 4SM SHRA VCTS OVC015CB
     FM012200 21015G23KT P6SM BKN070=

USA.gov is the U.S. government's official web portal to all federal, state and local government web resources and services.